Terminal Aerodrome Forecast
Issued by NWS

Home | Current Version | Previous Version | Text Only | Print | Product List | Glossary On
Versions: 1 2 3 4 5 6 7 8 9 10 11 12 13 14 15
478
FTUS42 KTBW 231734
TAFLAL
TAF
KLAL 231734Z 2318/2418 07013G19KT P6SM VCTS SCT025CB BKN050
     FM232300 07012G18KT P6SM SCT025 BKN050
     FM240200 07012G17KT P6SM FEW025 SCT050
     FM240300 07008KT P6SM FEW020 SCT250
     FM241400 08011G16KT P6SM FEW020 SCT250=

USA.gov is the U.S. government's official web portal to all federal, state and local government web resources and services.